Etusivu
METAR-TAF:

METAR-TAF

Lentoasemat :

Orcas Island Airport

Eastsound, Washington, Yhdysvallat

Leveyspiiri: 48-42-29N, Pituuspiiri: 122-54-37W, korkeus merenpinnasta: 9 m

Tämänhetkinen sää

Tämä raportti tehtiin 20 minuuttia sitten, kello 18.15 UTC
Tuuli 7 kn etelästä/kaakosta puuskistuen 14 kn:hen
Lämpötila 13°C
Kosteus 82%
Ilmanpaine 1007 hPa
Näkyvyys: 12.9 km
Pilvistä 3600 ft:n korkeudessa
heikkoa sadetta

METAR: KORS 201815Z AUTO 16007G14KT 8SM -RA OVC036 13/10 A2974 RMK AO2

Aika: 11:35 (18:35 UTC)


TAF: puuttuu

Säähavainnot ja -ennusteet yli 4000 lentoasemalta (METAR- ja TAF-raportit).

Käytössä olevat sääasemat on merkitty karttaan keltaisilla ja punaisilla pisteillä.

Aseta hiiri pisteen päälle nähdäksesi sääaseman nimen.

Klikkaa sitten nähdäksesi säähavainnot ja -ennusteet.

Kartan vaihtaminen: klikkaa mustalla rastilla varustettuja vihreitä pisteitä, niin voit zoomata sisään; viivalla varustettua vihreää pistettä, niin voit zoomata ulos tai vihreitä nuolia, niin pääset viereisille kartoille.


METAR-TAF: